首页
METAR-TAF:

METAR-TAF

机场 :

Naval Air Station Whiting Field North

米尔顿, 佛罗里达州, 美国

纬度: 30-44-00N, 经度: 087-01-00W, 海拔: 60米

当前天气观测

该预报发布于1小时和14分钟前的13:56 UTC
风速4节,风向多变
温度 14°C
湿度 63%
气压 1019 hPa
能見度: 16.1公里
少量云层高于20000英尺
散云层高于25000英尺

METAR: KNSE 021356Z VRB04KT 10SM FEW200 SCT250 14/07 A3010 RMK AO2 SLP181 T01440067 $

时间: 10:10 (15:10 UTC)

预报

预报有效从02日的 07点(UTC)到 03日的 07点(UTC)
风速6节,风向多变
能见度10公里或以上
天空无云
短暂存在
从 02日的 07点(UTC)到 02日的 10点(UTC)
能見度: 1600
轻雾
短暂存在
从 02日的 18点(UTC)到 02日的 22点(UTC)
风速8节,风向西
短暂存在
从 03日的 03点(UTC)到 03日的 07点(UTC)
能見度: 0211

TAF: KNSE 0207/0307 VRB06KT 9999 SKC QNH2996INS TEMPO 0207/0210 1600 BR TEMPO 0218/0222 26008KT TEMPO 0303/0307 0800 FG AUTOMATED SENSOR METWATCH 0207 TIL 0211 T10/0212Z T24/0220Z FN00218

超过4000个机场的气象观测和天气预报(METAR&TAF报告)。

可查询的气象台以黄色和红色小点在地图上表示。

将鼠标移到小点上方,可查看气象台名称。

然后点击查看天气观测和预报。

如需切换地图:点击带黑十字的绿色按钮放大地图;点击带横线的绿色按钮缩小地图;或者点击绿色箭头查看邻近地区的地图。


METAR-TAF: